Time;durP1;ratioP1;P1;durP2;ratioP2;P2;SDS_P1;SDS_P2;PMS_P1;PMS_P2;Temp;Humidity;BMP_temperature;BMP_pressure;BME280_temperature;BME280_humidity;BME280_pressure;Samples;Min_cycle;Max_cycle;Signal;HPM_P1;HPM_P2
2024/01/17 00:01:00;;;;;;;5.80;4.20;;;;;;;-12.43;79.00;100827.72;4996368;28;20073;-57
2024/01/17 00:03:31;;;;;;;6.20;4.32;;;;;;;-12.20;79.27;100822.97;5006307;28;20495;-61
2024/01/17 00:06:02;;;;;;;4.75;4.20;;;;;;;-11.89;79.17;100825.47;4987895;28;20057;-60
2024/01/17 00:08:32;;;;;;;4.80;3.58;;;;;;;-11.64;78.95;100832.50;4990745;28;20057;-57
2024/01/17 00:11:03;;;;;;;4.65;3.22;;;;;;;-11.42;78.26;100820.84;4984255;28;20054;-60
2024/01/17 00:13:35;;;;;;;3.58;3.30;;;;;;;-11.20;78.10;100822.56;4993840;28;20057;-59
2024/01/17 00:16:06;;;;;;;4.30;3.40;;;;;;;-11.04;77.45;100825.50;4987788;28;20049;-59
2024/01/17 00:18:37;;;;;;;3.42;2.95;;;;;;;-10.93;77.18;100823.81;4998541;28;20057;-60
2024/01/17 00:21:07;;;;;;;3.58;3.28;;;;;;;-10.84;76.72;100813.56;4987522;28;20524;-62
2024/01/17 00:23:38;;;;;;;3.90;3.50;;;;;;;-10.70;76.34;100813.88;4990328;28;20049;-58
2024/01/17 00:26:08;;;;;;;4.53;3.28;;;;;;;-10.55;76.49;100809.09;4996211;28;20056;-56
2024/01/17 00:28:40;;;;;;;4.63;3.03;;;;;;;-10.43;76.22;100816.75;5002344;28;20068;-56
2024/01/17 00:31:11;;;;;;;4.18;3.08;;;;;;;-10.30;75.92;100816.03;5005547;28;20053;-57
2024/01/17 00:33:42;;;;;;;5.53;3.65;;;;;;;-10.24;75.93;100811.38;4994844;28;20086;-59
2024/01/17 00:36:12;;;;;;;4.30;3.33;;;;;;;-10.18;75.69;100801.75;4985231;28;20067;-57
2024/01/17 00:38:43;;;;;;;3.90;3.45;;;;;;;-10.17;75.59;100793.38;4992631;28;20060;-60
2024/01/17 00:41:13;;;;;;;5.90;3.40;;;;;;;-10.17;75.51;100798.44;5005782;28;20049;-57
2024/01/17 00:43:47;;;;;;;5.40;3.17;;;;;;;-10.22;75.39;100787.09;4981629;28;20468;-59
2024/01/17 00:46:17;;;;;;;4.30;3.28;;;;;;;-10.14;75.80;100778.44;4972434;28;20050;-57
2024/01/17 00:48:47;;;;;;;5.45;3.70;;;;;;;-10.02;76.19;100776.81;4964695;28;20104;-58
2024/01/17 00:51:35;;;;;;;5.47;3.50;;;;;;;-10.04;75.77;100770.78;4974330;28;20215;-61
2024/01/17 00:54:05;;;;;;;6.40;4.20;;;;;;;-9.91;75.95;100766.63;4967372;28;20108;-60
2024/01/17 00:56:36;;;;;;;7.10;4.72;;;;;;;-9.87;76.08;100766.09;4970663;28;21034;-60
2024/01/17 00:59:08;;;;;;;5.95;4.63;;;;;;;-9.78;76.53;100779.41;4963957;28;20124;-59
2024/01/17 01:01:38;;;;;;;7.90;4.40;;;;;;;-9.75;76.79;100778.75;4973084;28;20058;-57
2024/01/17 01:04:10;;;;;;;9.27;5.90;;;;;;;-9.81;76.50;100779.16;4973742;28;20046;-59
2024/01/17 01:06:41;;;;;;;39.35;20.15;;;;;;;-9.79;76.49;100772.56;4990151;28;20054;-60
2024/01/17 01:09:11;;;;;;;22.48;12.43;;;;;;;-9.77;76.44;100773.56;5005170;28;20071;-59
2024/01/17 01:11:42;;;;;;;14.23;8.75;;;;;;;-9.80;76.58;100751.47;4995074;28;20076;-60
2024/01/17 01:14:14;;;;;;;18.50;9.55;;;;;;;-9.65;76.31;100771.94;5005138;28;20128;-59
2024/01/17 01:16:44;;;;;;;18.65;10.43;;;;;;;-9.48;76.05;100779.81;5004977;28;20049;-59
2024/01/17 01:19:15;;;;;;;22.50;12.48;;;;;;;-9.24;76.45;100779.03;5004715;28;20073;-57
2024/01/17 01:21:45;;;;;;;12.95;7.07;;;;;;;-8.98;76.43;100774.94;4998247;28;20049;-59
2024/01/17 01:24:16;;;;;;;7.85;4.95;;;;;;;-8.75;76.43;100769.81;5008482;28;20065;-60
2024/01/17 01:26:46;;;;;;;9.32;4.80;;;;;;;-8.53;75.97;100767.09;4998314;28;20492;-60
2024/01/17 01:29:18;;;;;;;7.10;4.90;;;;;;;-8.27;76.02;100761.19;5009166;28;20088;-58
2024/01/17 01:31:49;;;;;;;6.45;3.80;;;;;;;-7.95;75.75;100764.97;4998311;28;20049;-60
2024/01/17 01:34:19;;;;;;;5.07;3.88;;;;;;;-7.66;75.58;100763.44;5008559;28;20151;-61
2024/01/17 01:36:50;;;;;;;8.07;4.18;;;;;;;-7.46;75.24;100767.25;4998643;28;20156;-58
2024/01/17 01:39:20;;;;;;;4.68;3.90;;;;;;;-7.41;74.11;100766.78;5008207;28;20400;-61
2024/01/17 01:41:51;;;;;;;6.45;3.65;;;;;;;-7.28;73.65;100765.03;4998210;28;20115;-57
2024/01/17 01:44:23;;;;;;;4.80;3.45;;;;;;;-7.30;72.96;100751.34;4989615;28;20123;-60
2024/01/17 01:46:54;;;;;;;5.63;3.80;;;;;;;-7.34;72.29;100751.94;4978846;28;20053;-58
2024/01/17 01:49:25;;;;;;;18.08;10.57;;;;;;;-7.40;71.88;100748.22;4988736;28;20053;-57
2024/01/17 01:51:56;;;;;;;29.85;11.35;;;;;;;-7.50;72.37;100745.88;4978868;28;20056;-58
2024/01/17 01:54:27;;;;;;;15.27;8.20;;;;;;;-7.47;72.33;100745.19;4992654;28;20056;-59
2024/01/17 01:56:59;;;;;;;27.55;11.15;;;;;;;-7.41;72.54;100731.25;4997933;28;20049;-61
2024/01/17 01:59:32;;;;;;;17.02;7.60;;;;;;;-7.39;72.70;100729.69;5008371;28;20053;-58
2024/01/17 02:02:04;;;;;;;10.18;5.88;;;;;;;-7.27;73.24;100723.59;4998234;28;20060;-58
2024/01/17 02:04:35;;;;;;;12.05;5.88;;;;;;;-7.19;73.12;100719.88;5007946;28;20432;-58
2024/01/17 02:07:07;;;;;;;8.48;4.47;;;;;;;-7.28;72.38;100696.47;4997647;28;20476;-59
2024/01/17 02:09:38;;;;;;;4.60;3.33;;;;;;;-7.22;72.39;100707.00;5008138;28;20073;-57
2024/01/17 02:12:10;;;;;;;6.47;3.53;;;;;;;-7.45;72.80;100708.97;4997930;28;20127;-56
2024/01/17 02:14:43;;;;;;;5.95;3.80;;;;;;;-7.31;73.42;100702.22;4997692;28;20326;-59
2024/01/17 02:17:13;;;;;;;6.25;3.42;;;;;;;-7.12;73.92;100708.44;4988989;28;20130;-58
2024/01/17 02:19:44;;;;;;;3.83;3.03;;;;;;;-7.15;74.10;100683.72;4986555;28;20080;-57
2024/01/17 02:22:15;;;;;;;8.30;3.25;;;;;;;-7.29;74.26;100690.47;5001067;28;20049;-59
2024/01/17 02:24:47;;;;;;;6.82;3.47;;;;;;;-7.38;74.50;100693.34;4989986;28;20074;-59
2024/01/17 02:27:18;;;;;;;3.58;2.85;;;;;;;-7.49;75.75;100685.84;4992681;28;20064;-58
2024/01/17 02:29:48;;;;;;;5.97;3.30;;;;;;;-7.61;75.67;100691.06;4997165;28;20061;-58
2024/01/17 02:32:19;;;;;;;6.07;3.30;;;;;;;-7.59;76.39;100697.06;4993352;28;20046;-57
2024/01/17 02:34:49;;;;;;;5.50;3.72;;;;;;;-7.56;76.54;100684.59;4995566;28;20136;-59
2024/01/17 02:37:20;;;;;;;4.63;3.60;;;;;;;-7.52;76.27;100676.38;4999583;28;20046;-56
2024/01/17 02:39:52;;;;;;;6.60;3.80;;;;;;;-7.46;75.59;100679.31;4997901;28;20045;-59
2024/01/17 02:42:22;;;;;;;5.43;4.03;;;;;;;-7.29;75.51;100679.47;5004455;28;20136;-58
2024/01/17 02:44:52;;;;;;;6.15;4.07;;;;;;;-7.11;74.78;100685.69;4978055;28;20108;-59
2024/01/17 02:47:23;;;;;;;6.22;3.80;;;;;;;-7.05;73.72;100670.81;4988236;28;20050;-58
2024/01/17 02:49:54;;;;;;;6.78;3.97;;;;;;;-7.09;72.50;100658.69;4978398;28;20050;-58
2024/01/17 02:52:24;;;;;;;6.80;4.20;;;;;;;-7.18;72.36;100655.63;4988209;28;20056;-56
2024/01/17 02:54:56;;;;;;;6.97;4.10;;;;;;;-7.23;72.17;100644.31;4989508;28;20080;-59
2024/01/17 02:57:27;;;;;;;5.50;3.90;;;;;;;-7.23;72.05;100641.75;4998547;28;20057;-59
2024/01/17 02:59:57;;;;;;;6.03;3.47;;;;;;;-7.06;72.39;100643.66;4996435;28;20585;-62
2024/01/17 03:02:28;;;;;;;6.90;3.72;;;;;;;-6.83;71.78;100637.41;5007596;28;20073;-58
2024/01/17 03:04:58;;;;;;;5.18;3.50;;;;;;;-6.68;71.37;100634.88;4989488;28;20058;-58
2024/01/17 03:07:29;;;;;;;4.50;3.20;;;;;;;-6.76;71.23;100636.09;5011706;28;20172;-58
2024/01/17 03:10:01;;;;;;;5.07;3.30;;;;;;;-6.81;71.61;100629.88;4994581;28;20701;-59
2024/01/17 03:12:31;;;;;;;4.93;3.47;;;;;;;-6.85;71.88;100627.94;5014653;28;20072;-60
2024/01/17 03:15:02;;;;;;;6.25;3.47;;;;;;;-6.83;71.92;100631.44;5006409;28;20136;-59
2024/01/17 03:17:32;;;;;;;9.07;3.58;;;;;;;-6.71;71.67;100627.09;5017367;28;20144;-60
2024/01/17 03:20:04;;;;;;;5.28;3.50;;;;;;;-6.77;71.74;100626.72;5007439;28;20053;-57
2024/01/17 03:22:34;;;;;;;8.82;3.55;;;;;;;-6.91;72.04;100622.47;5013624;28;20104;-57
2024/01/17 03:25:08;;;;;;;4.53;3.33;;;;;;;-6.97;72.09;100623.88;5002050;28;20050;-58
2024/01/17 03:27:38;;;;;;;7.80;3.58;;;;;;;-6.86;72.20;100616.00;4986913;28;20062;-59
2024/01/17 03:30:10;;;;;;;8.90;4.05;;;;;;;-6.80;72.01;100613.84;4988952;28;20546;-57
2024/01/17 03:32:40;;;;;;;6.38;3.70;;;;;;;-6.71;71.88;100611.84;4984212;28;20052;-60
2024/01/17 03:35:11;;;;;;;9.05;3.35;;;;;;;-6.67;71.44;100608.66;4987541;28;20046;-59
2024/01/17 03:37:41;;;;;;;5.60;3.60;;;;;;;-6.68;71.67;100606.94;4977847;28;20045;-59
2024/01/17 03:40:14;;;;;;;7.60;4.00;;;;;;;-6.63;71.26;100608.06;4987059;28;20144;-58
2024/01/17 03:42:44;;;;;;;8.68;4.05;;;;;;;-6.59;71.34;100607.47;4982945;28;20081;-57
2024/01/17 03:45:15;;;;;;;9.32;4.13;;;;;;;-6.63;71.60;100610.59;5002699;28;20057;-61
2024/01/17 03:47:45;;;;;;;7.38;4.32;;;;;;;-6.73;71.56;100608.31;4990340;28;20480;-59
2024/01/17 03:50:16;;;;;;;6.82;3.67;;;;;;;-6.80;72.18;100608.75;5002335;28;20077;-56
2024/01/17 03:52:46;;;;;;;7.15;3.60;;;;;;;-6.99;72.00;100589.91;4991479;28;20084;-59
2024/01/17 03:55:18;;;;;;;5.72;3.38;;;;;;;-7.03;71.84;100598.13;5001967;28;20431;-59
2024/01/17 03:57:49;;;;;;;6.57;3.30;;;;;;;-6.91;72.27;100597.06;4991863;28;20507;-58
2024/01/17 04:00:19;;;;;;;5.15;3.25;;;;;;;-6.84;72.40;100596.66;5000831;28;20061;-59
2024/01/17 04:02:50;;;;;;;3.92;2.80;;;;;;;-6.80;72.43;100591.84;4991948;28;20499;-59
2024/01/17 04:05:21;;;;;;;6.13;2.97;;;;;;;-7.03;72.60;100542.22;5001265;28;20377;-59
2024/01/17 04:07:51;;;;;;;5.68;3.40;;;;;;;-6.81;72.31;100581.59;4991235;28;20716;-59
2024/01/17 04:10:23;;;;;;;5.45;2.70;;;;;;;-6.81;72.67;100591.75;5001174;28;20063;-59
2024/01/17 04:12:53;;;;;;;5.25;3.20;;;;;;;-6.93;73.31;100588.50;4991671;28;20055;-60
2024/01/17 04:15:24;;;;;;;6.13;3.50;;;;;;;-7.17;73.91;100588.78;5000578;28;20065;-61
2024/01/17 04:17:54;;;;;;;6.72;3.85;;;;;;;-7.11;74.11;100589.16;4991226;28;20050;-60
2024/01/17 04:20:25;;;;;;;7.38;4.47;;;;;;;-7.16;72.65;100605.81;5000156;28;20045;-58
2024/01/17 04:22:57;;;;;;;12.02;6.18;;;;;;;-7.27;72.24;100606.81;4998527;28;20044;-59
2024/01/17 04:25:30;;;;;;;10.15;5.55;;;;;;;-7.38;72.15;100601.09;5001088;28;20041;-61
2024/01/17 04:28:00;;;;;;;12.35;5.20;;;;;;;-7.51;71.43;100596.03;4991190;28;20061;-59
2024/01/17 04:30:31;;;;;;;9.20;5.13;;;;;;;-7.46;71.66;100598.09;5004504;28;20072;-58
2024/01/17 04:33:01;;;;;;;7.75;5.05;;;;;;;-7.33;71.37;100601.38;5000168;28;20061;-59
2024/01/17 04:35:32;;;;;;;12.10;5.10;;;;;;;-7.27;70.58;100600.06;5008908;28;20068;-59
2024/01/17 04:38:03;;;;;;;10.10;5.47;;;;;;;-7.40;70.60;100545.13;4990930;28;20187;-58
2024/01/17 04:40:35;;;;;;;9.93;5.10;;;;;;;-7.25;69.57;100605.25;5000428;28;20871;-58
2024/01/17 04:43:05;;;;;;;10.07;5.07;;;;;;;-7.83;69.61;100573.00;4981234;28;20518;-59
2024/01/17 04:45:36;;;;;;;6.55;4.55;;;;;;;-7.82;70.17;100610.25;5005907;28;20049;-60
2024/01/17 04:48:11;;;;;;;5.55;3.88;;;;;;;-8.03;71.29;100608.91;4982250;28;20575;-60
2024/01/17 04:50:42;;;;;;;5.82;4.07;;;;;;;-8.19;71.96;100608.72;4990572;28;20136;-60
2024/01/17 04:53:15;;;;;;;4.80;3.60;;;;;;;-8.12;72.41;100609.19;4994890;28;20128;-60
2024/01/17 04:55:47;;;;;;;7.07;3.97;;;;;;;-8.07;72.33;100609.50;4995420;28;20381;-59
2024/01/17 04:58:18;;;;;;;7.10;4.30;;;;;;;-8.17;72.56;100617.28;4999735;28;20045;-60
2024/01/17 05:31:52;;;;;;;14.18;8.13;;;;;;;-9.13;81.60;100641.47;6196826;23;20031;-62
2024/01/17 05:34:23;;;;;;;16.02;8.65;;;;;;;-9.17;82.25;100644.56;6197356;23;20066;-60
2024/01/17 05:36:53;;;;;;;20.63;8.73;;;;;;;-9.15;82.74;100639.59;6212296;23;20023;-56
2024/01/17 05:39:23;;;;;;;19.02;8.82;;;;;;;-9.16;83.09;100643.78;6196622;23;20038;-60
2024/01/17 05:41:54;;;;;;;14.65;8.10;;;;;;;-9.18;83.24;100629.28;6211406;23;20020;-59
2024/01/17 05:44:24;;;;;;;15.15;8.70;;;;;;;-9.02;83.51;100646.38;6196498;23;20459;-60
2024/01/17 05:46:57;;;;;;;14.85;7.30;;;;;;;-8.98;83.64;100644.16;6211998;23;20074;-59
2024/01/17 05:49:27;;;;;;;12.52;7.45;;;;;;;-8.99;83.61;100644.03;6196729;23;20054;-60
2024/01/17 05:51:58;;;;;;;13.48;7.18;;;;;;;-8.97;83.82;100634.91;6211134;23;20108;-61
2024/01/17 05:54:28;;;;;;;12.32;7.43;;;;;;;-8.93;84.02;100636.88;6196573;23;20047;-61
2024/01/17 05:56:59;;;;;;;13.20;8.40;;;;;;;-9.04;84.69;100627.66;6211371;23;20103;-60
2024/01/17 05:59:30;;;;;;;11.85;7.45;;;;;;;-8.92;85.21;100643.69;6196100;23;20652;-58
2024/01/17 06:02:02;;;;;;;15.63;8.20;;;;;;;-9.13;85.36;100621.22;6211737;23;20020;-60
2024/01/17 06:04:33;;;;;;;11.57;7.38;;;;;;;-9.04;85.45;100652.97;6196731;23;20020;-60
2024/01/17 06:07:04;;;;;;;15.80;8.07;;;;;;;-9.04;85.97;100647.91;6211352;23;20024;-61
2024/01/17 06:09:35;;;;;;;11.65;7.28;;;;;;;-8.99;86.40;100651.63;6195660;23;20466;-61
2024/01/17 06:12:05;;;;;;;11.63;7.13;;;;;;;-8.95;86.80;100644.34;6211204;23;20028;-60
2024/01/17 06:14:36;;;;;;;13.75;8.40;;;;;;;-8.92;86.92;100654.69;6196238;23;21625;-59
2024/01/17 06:17:08;;;;;;;12.13;7.38;;;;;;;-9.03;86.64;100645.50;6211669;23;20046;-61
2024/01/17 06:19:40;;;;;;;13.07;7.80;;;;;;;-8.92;86.73;100663.94;6194574;23;20058;-61
2024/01/17 06:22:10;;;;;;;14.80;8.98;;;;;;;-8.97;87.42;100665.28;6205329;23;20466;-62
2024/01/17 06:24:41;;;;;;;13.05;8.18;;;;;;;-9.00;88.04;100665.09;6210845;23;20442;-60
2024/01/17 06:27:11;;;;;;;13.13;7.43;;;;;;;-9.09;88.01;100654.31;6197711;23;20585;-62
2024/01/17 06:29:42;;;;;;;12.10;7.45;;;;;;;-9.17;88.33;100662.28;6203967;23;20020;-59
2024/01/17 06:32:15;;;;;;;11.68;7.55;;;;;;;-9.40;88.93;100632.00;6189712;23;20661;-63
2024/01/17 06:34:46;;;;;;;11.65;7.40;;;;;;;-9.26;89.22;100671.78;6204399;23;20103;-60
2024/01/17 06:37:16;;;;;;;12.88;7.07;;;;;;;-9.31;89.27;100660.44;6189428;23;20027;-59
2024/01/17 06:39:47;;;;;;;15.73;6.55;;;;;;;-9.33;89.52;100672.13;6204409;23;20035;-60
2024/01/17 06:42:17;;;;;;;9.02;6.07;;;;;;;-9.32;89.91;100667.94;6188945;23;20118;-60
2024/01/17 06:44:48;;;;;;;12.45;6.55;;;;;;;-9.35;90.03;100676.19;6204562;23;20379;-61
2024/01/17 06:47:20;;;;;;;9.48;5.72;;;;;;;-9.36;90.34;100682.00;6189486;23;20464;-62
2024/01/17 06:49:50;;;;;;;12.15;5.90;;;;;;;-9.35;90.96;100678.72;6205507;23;20020;-61
2024/01/17 06:52:20;;;;;;;13.52;7.53;;;;;;;-9.38;90.99;100681.94;6189675;23;20028;-59
2024/01/17 06:54:51;;;;;;;10.98;5.55;;;;;;;-9.44;91.05;100670.50;6204728;23;20392;-61
2024/01/17 06:57:21;;;;;;;10.07;5.97;;;;;;;-9.47;91.15;100677.88;6189496;23;20099;-62
2024/01/17 06:59:52;;;;;;;11.32;6.57;;;;;;;-9.51;91.36;100673.34;6204427;23;20086;-61
2024/01/17 07:02:24;;;;;;;13.40;7.10;;;;;;;-9.45;92.25;100678.88;6189780;23;20062;-62
2024/01/17 07:04:54;;;;;;;11.98;6.55;;;;;;;-9.39;92.43;100680.16;6204434;23;20038;-58
2024/01/17 07:07:24;;;;;;;7.85;5.90;;;;;;;-9.35;92.46;100671.13;6188732;23;20452;-60
2024/01/17 07:09:55;;;;;;;11.35;5.88;;;;;;;-9.47;92.43;100690.53;6204029;23;20050;-60
2024/01/17 07:12:25;;;;;;;8.82;5.80;;;;;;;-9.56;92.56;100685.69;6189112;23;20059;-60
2024/01/17 07:14:56;;;;;;;7.30;5.57;;;;;;;-9.62;92.84;100687.78;6204080;23;20034;-62
2024/01/17 07:17:28;;;;;;;13.07;6.32;;;;;;;-9.66;93.12;100689.25;6189195;23;20099;-59
2024/01/17 07:19:59;;;;;;;10.60;6.28;;;;;;;-9.68;93.36;100690.78;6204542;23;20095;-63
2024/01/17 07:22:29;;;;;;;12.32;6.57;;;;;;;-9.68;93.61;100700.91;6189198;23;20086;-61
2024/01/17 07:25:00;;;;;;;12.70;6.72;;;;;;;-9.76;93.76;100696.91;6204040;23;20035;-62
2024/01/17 07:27:30;;;;;;;12.40;5.82;;;;;;;-9.68;94.37;100710.09;6188675;23;20029;-60
2024/01/17 07:30:00;;;;;;;9.20;5.82;;;;;;;-9.69;94.45;100714.28;6203565;23;20047;-61
2024/01/17 07:32:33;;;;;;;7.97;5.80;;;;;;;-9.68;94.74;100710.09;6189195;23;20763;-62
2024/01/17 07:35:03;;;;;;;7.68;5.60;;;;;;;-9.72;94.82;100706.50;6204501;23;20082;-62
2024/01/17 07:37:34;;;;;;;8.73;5.30;;;;;;;-9.76;95.12;100712.09;6188782;23;20020;-62
2024/01/17 07:40:05;;;;;;;8.95;5.53;;;;;;;-9.76;95.23;100714.63;6203144;23;20107;-60
2024/01/17 07:42:36;;;;;;;8.77;5.10;;;;;;;-9.78;95.55;100711.13;6188040;23;20020;-62
2024/01/17 07:45:07;;;;;;;7.90;5.20;;;;;;;-9.79;95.57;100716.94;6203846;23;20108;-62
2024/01/17 07:47:40;;;;;;;10.30;4.95;;;;;;;-9.81;95.90;100718.47;6188007;23;20320;-59
2024/01/17 07:50:11;;;;;;;7.25;4.80;;;;;;;-9.81;95.92;100721.00;6199250;23;20055;-60
2024/01/17 07:52:42;;;;;;;7.78;4.40;;;;;;;-9.77;96.04;100725.50;6203870;23;20110;-59
2024/01/17 07:55:12;;;;;;;9.40;4.88;;;;;;;-9.79;96.31;100732.09;6188777;23;20071;-63
2024/01/17 07:57:43;;;;;;;10.40;5.40;;;;;;;-9.77;96.29;100738.16;6203975;23;20028;-61
2024/01/17 08:00:14;;;;;;;9.13;4.95;;;;;;;-9.79;96.33;100722.00;6188526;23;20020;-61
2024/01/17 08:02:46;;;;;;;20.27;8.85;;;;;;;-9.79;96.49;100727.06;6203482;23;20095;-58
2024/01/17 08:05:17;;;;;;;20.08;10.60;;;;;;;-9.83;96.41;100725.09;6188520;23;20302;-61
2024/01/17 08:07:47;;;;;;;18.83;8.40;;;;;;;-9.82;96.60;100731.91;6203906;23;20158;-60
2024/01/17 08:10:18;;;;;;;10.43;6.57;;;;;;;-9.83;96.79;100735.22;6186987;23;20695;-61
2024/01/17 08:12:48;;;;;;;12.65;6.35;;;;;;;-9.85;96.98;100736.75;6202312;23;20024;-62
2024/01/17 08:15:20;;;;;;;13.85;7.28;;;;;;;-9.85;97.31;100731.69;6188771;23;20024;-60
2024/01/17 08:17:52;;;;;;;14.80;7.57;;;;;;;-9.86;97.49;100734.97;6203598;23;20020;-60
2024/01/17 08:20:22;;;;;;;12.48;6.93;;;;;;;-9.87;97.53;100743.31;6188590;23;20032;-62
2024/01/17 08:22:53;;;;;;;16.13;7.80;;;;;;;-9.86;97.58;100750.13;6204166;23;20345;-59
2024/01/17 08:25:25;;;;;;;17.65;6.43;;;;;;;-9.88;97.75;100747.50;6188389;23;20111;-62
2024/01/17 08:27:55;;;;;;;16.67;6.32;;;;;;;-9.88;97.81;100746.59;6202468;23;20452;-61
2024/01/17 08:30:26;;;;;;;13.82;6.47;;;;;;;-9.89;98.03;100752.44;6188244;23;20034;-60
2024/01/17 08:32:58;;;;;;;12.20;5.82;;;;;;;-9.87;98.33;100751.78;6203142;23;20086;-59
2024/01/17 08:35:29;;;;;;;15.35;6.57;;;;;;;-9.82;98.34;100752.13;6187594;23;20474;-62
2024/01/17 08:38:00;;;;;;;16.88;6.82;;;;;;;-9.92;98.53;100729.47;6203324;23;20016;-60
2024/01/17 08:40:31;;;;;;;10.05;5.20;;;;;;;-9.74;98.58;100761.13;6188436;23;20071;-62
2024/01/17 08:43:05;;;;;;;7.43;5.10;;;;;;;-9.70;98.53;100763.13;6202886;23;20047;-61
2024/01/17 08:45:35;;;;;;;6.75;4.40;;;;;;;-9.68;98.53;100766.66;6187682;23;20419;-60
2024/01/17 08:48:08;;;;;;;11.73;5.10;;;;;;;-9.65;98.18;100768.53;6202616;23;20016;-63
2024/01/17 08:50:38;;;;;;;8.98;4.75;;;;;;;-9.65;98.18;100771.94;6188026;23;20039;-60
2024/01/17 08:53:09;;;;;;;6.32;4.53;;;;;;;-9.65;98.21;100771.94;6203904;23;20024;-62
2024/01/17 08:55:39;;;;;;;6.43;4.63;;;;;;;-9.68;98.13;100774.25;6187506;23;20020;-61
2024/01/17 08:58:14;;;;;;;6.50;3.90;;;;;;;-9.64;97.96;100777.84;6187654;23;20024;-59
2024/01/17 09:00:44;;;;;;;5.45;4.25;;;;;;;-9.67;98.02;100778.53;6202620;23;20024;-63
2024/01/17 09:03:16;;;;;;;6.40;4.28;;;;;;;-9.69;98.06;100780.06;6187595;23;20571;-60
2024/01/17 09:05:47;;;;;;;6.55;4.07;;;;;;;-9.71;97.84;100791.69;6202704;23;20452;-61
2024/01/17 09:08:18;;;;;;;5.50;3.80;;;;;;;-9.75;97.93;100781.28;6187878;23;20016;-62
2024/01/17 09:10:49;;;;;;;8.38;4.53;;;;;;;-9.73;98.03;100785.69;6203270;23;20034;-61
2024/01/17 09:13:19;;;;;;;5.95;3.90;;;;;;;-9.74;98.29;100781.38;6188132;23;20016;-62
2024/01/17 09:15:49;;;;;;;7.78;4.30;;;;;;;-9.75;98.25;100784.69;6202725;23;20058;-61
2024/01/17 09:18:21;;;;;;;7.68;4.35;;;;;;;-9.85;98.04;100777.19;6188193;23;20031;-61
2024/01/17 09:20:52;;;;;;;6.93;4.47;;;;;;;-9.80;98.35;100786.00;6202512;23;20135;-62
2024/01/17 09:23:23;;;;;;;9.05;4.20;;;;;;;-9.81;98.45;100784.22;6188188;23;20462;-60
2024/01/17 09:25:53;;;;;;;7.72;5.43;;;;;;;-9.81;98.67;100795.22;6203329;23;20439;-61
2024/01/17 09:28:24;;;;;;;8.98;6.10;;;;;;;-9.82;98.51;100797.63;6188223;23;20024;-62
2024/01/17 09:30:54;;;;;;;8.07;5.30;;;;;;;-9.83;98.45;100800.94;6203043;23;20027;-59
2024/01/17 09:33:27;;;;;;;6.88;4.47;;;;;;;-9.85;98.42;100802.47;6187934;23;20032;-59
2024/01/17 09:35:58;;;;;;;7.82;4.65;;;;;;;-9.83;98.69;100800.94;6202780;23;20028;-62
2024/01/17 09:38:31;;;;;;;7.03;4.13;;;;;;;-9.80;98.68;100798.63;6187669;23;20029;-62
2024/01/17 09:41:02;;;;;;;8.20;4.35;;;;;;;-9.84;98.56;100804.22;6203158;23;20095;-63
2024/01/17 09:43:33;;;;;;;6.32;4.18;;;;;;;-9.92;98.26;100790.16;6187741;23;20047;-61
2024/01/17 09:46:04;;;;;;;8.27;4.50;;;;;;;-9.85;98.32;100802.47;6202038;23;20074;-63
2024/01/17 09:48:36;;;;;;;7.30;4.35;;;;;;;-9.85;98.46;100810.06;6187129;23;20043;-60
2024/01/17 09:51:10;;;;;;;6.55;3.83;;;;;;;-9.99;98.33;100789.69;6202433;23;20020;-61
2024/01/17 09:53:45;;;;;;;6.80;4.38;;;;;;;-9.95;98.15;100810.16;6188192;23;20034;-63
2024/01/17 09:56:17;;;;;;;4.43;3.30;;;;;;;-10.01;98.34;100814.00;6188279;23;20016;-62
2024/01/17 09:58:51;;;;;;;5.65;3.97;;;;;;;-9.91;98.44;100812.13;6203247;23;20103;-63
2024/01/17 10:01:23;;;;;;;5.38;3.53;;;;;;;-9.92;98.48;100805.31;6187978;23;20044;-61
2024/01/17 10:03:57;;;;;;;6.00;3.58;;;;;;;-9.90;98.19;100813.91;6204239;23;20024;-59
2024/01/17 10:06:29;;;;;;;6.65;3.72;;;;;;;-9.94;98.08;100827.06;6190199;23;20467;-60
2024/01/17 10:09:01;;;;;;;4.70;3.50;;;;;;;-9.99;98.18;100830.13;6204240;23;20553;-61
2024/01/17 10:11:31;;;;;;;5.55;3.70;;;;;;;-10.05;98.15;100843.97;6190107;23;20021;-63
2024/01/17 10:14:02;;;;;;;8.35;3.35;;;;;;;-10.09;98.35;100837.78;6204823;23;20032;-60
2024/01/17 10:16:33;;;;;;;3.40;3.10;;;;;;;-10.10;98.47;100846.16;6189217;23;20039;-61
2024/01/17 10:19:06;;;;;;;5.95;3.40;;;;;;;-10.27;98.83;100816.22;6204268;23;20047;-62
2024/01/17 10:21:37;;;;;;;4.18;3.10;;;;;;;-10.35;98.91;100799.63;6189018;23;20099;-61
2024/01/17 10:24:07;;;;;;;6.03;3.60;;;;;;;-10.18;98.74;100843.81;6204141;23;20456;-61
2024/01/17 10:26:42;;;;;;;6.10;3.63;;;;;;;-10.19;99.02;100840.41;6189161;23;20020;-63
2024/01/17 10:29:13;;;;;;;4.53;3.53;;;;;;;-10.20;98.95;100848.75;6189205;23;20020;-61
2024/01/17 10:31:44;;;;;;;6.35;3.08;;;;;;;-10.25;98.95;100845.00;6204729;23;20510;-60
2024/01/17 10:34:16;;;;;;;5.47;3.33;;;;;;;-10.29;98.85;100853.13;6189624;23;20042;-61
2024/01/17 10:36:46;;;;;;;8.52;3.53;;;;;;;-10.34;98.87;100849.38;6204792;23;20024;-60
2024/01/17 10:39:21;;;;;;;4.43;3.25;;;;;;;-10.39;98.67;100851.56;6187812;23;20052;-59
2024/01/17 10:41:54;;;;;;;5.90;3.42;;;;;;;-10.47;98.75;100843.41;6204722;23;20051;-61
2024/01/17 10:44:26;;;;;;;5.88;3.22;;;;;;;-10.62;98.68;100829.59;6188662;23;20106;-60
2024/01/17 10:46:57;;;;;;;5.30;3.15;;;;;;;-10.52;98.81;100843.81;6204212;23;20619;-62
2024/01/17 10:49:30;;;;;;;4.90;3.50;;;;;;;-10.60;98.49;100830.59;6189268;23;20051;-62
2024/01/17 10:52:05;;;;;;;4.15;3.22;;;;;;;-10.71;98.61;100813.72;6203513;23;20082;-60
2024/01/17 10:54:45;;;;;;;4.70;3.33;;;;;;;-10.61;98.63;100833.00;6189137;23;20539;-62
2024/01/17 10:57:16;;;;;;;;;;;;;;;-10.61;98.83;100833.88;6189577;23;20052;-62
2024/01/17 10:59:48;;;;;;;5.50;3.10;;;;;;;-10.63;98.44;100830.38;6204266;23;19950;-61
2024/01/17 11:02:21;;;;;;;5.05;3.00;;;;;;;-11.27;98.43;100720.28;6189254;23;20302;-61
2024/01/17 11:04:57;;;;;;;3.47;2.92;;;;;;;-10.63;98.50;100825.31;6205120;23;20103;-61
2024/01/17 11:07:27;;;;;;;7.20;3.45;;;;;;;-10.59;98.43;100827.31;6189328;23;20363;-62
2024/01/17 11:10:02;;;;;;;4.85;3.45;;;;;;;-10.81;98.61;100793.59;6203893;23;20103;-60
2024/01/17 11:12:34;;;;;;;6.68;3.50;;;;;;;-10.42;98.80;100832.00;6189047;23;20059;-62
2024/01/17 11:15:05;;;;;;;7.68;3.35;;;;;;;-10.43;98.07;100855.50;6203718;23;20024;-63
2024/01/17 11:17:39;;;;;;;5.10;3.05;;;;;;;-11.06;97.30;100743.75;6189001;23;20467;-60
2024/01/17 11:20:13;;;;;;;3.88;2.75;;;;;;;-10.59;97.58;100834.88;6204117;23;20024;-61
2024/01/17 11:22:48;;;;;;;7.13;2.90;;;;;;;-10.65;98.04;100831.91;6187790;23;20024;-62
2024/01/17 11:25:25;;;;;;;4.28;3.30;;;;;;;-10.76;98.02;100812.50;6188820;23;20440;-60
2024/01/17 11:28:09;;;;;;;7.68;3.22;;;;;;;-10.71;98.21;100836.47;6203373;23;20610;-60
2024/01/17 11:30:54;;;;;;;5.35;2.95;;;;;;;-10.70;98.56;100833.19;6188644;23;20435;-62
2024/01/17 11:33:26;;;;;;;4.32;3.25;;;;;;;-10.72;98.32;100829.66;6188880;23;20024;-59
2024/01/17 11:35:59;;;;;;;5.35;3.15;;;;;;;-10.71;98.22;100836.47;6203543;23;20123;-60
2024/01/17 11:38:33;;;;;;;4.35;2.92;;;;;;;-10.70;98.28;100831.53;6189036;23;20020;-61
2024/01/17 11:41:09;;;;;;;6.35;2.60;;;;;;;-10.70;98.38;100833.19;6203670;23;20452;-60
2024/01/17 11:43:42;;;;;;;5.00;3.60;;;;;;;-10.71;98.28;100833.94;6187430;23;20024;-62
2024/01/17 11:46:13;;;;;;;5.28;3.33;;;;;;;-10.71;98.60;100836.47;6188272;23;20035;-62
2024/01/17 11:48:44;;;;;;;5.32;3.60;;;;;;;-10.70;98.50;100838.25;6203208;23;20487;-60
2024/01/17 11:51:21;;;;;;;4.13;3.38;;;;;;;-11.57;98.50;100683.47;6188411;23;20020;-63
2024/01/17 11:53:53;;;;;;;4.93;3.38;;;;;;;-10.66;98.51;100845.28;6203694;23;20035;-61
2024/01/17 11:56:27;;;;;;;3.63;2.85;;;;;;;-10.67;98.57;100848.56;6188660;23;20039;-60
2024/01/17 11:59:05;;;;;;;3.55;3.22;;;;;;;-10.67;98.70;100848.56;6204068;23;20034;-59
2024/01/17 12:01:42;;;;;;;5.75;3.58;;;;;;;-10.65;98.58;100847.06;6187571;23;20020;-61
2024/01/17 12:04:17;;;;;;;6.22;3.50;;;;;;;-10.66;98.79;100845.28;6188003;23;20459;-60
2024/01/17 12:06:52;;;;;;;4.32;3.53;;;;;;;-10.96;98.52;100794.16;6203403;23;20100;-62
2024/01/17 12:09:22;;;;;;;4.05;3.40;;;;;;;-10.71;98.80;100831.41;6188617;23;20024;-63
2024/01/17 12:11:57;;;;;;;4.20;3.45;;;;;;;-10.73;98.69;100837.97;6203251;23;20027;-59